createdAt,value
2019-05-17T00:01:32.565Z,97395.85
2019-05-17T00:05:37.693Z,97391.14
2019-05-17T00:09:42.610Z,97388.53
2019-05-17T00:13:48.066Z,97391.14
2019-05-17T00:17:52.949Z,97383.36
2019-05-17T00:21:57.835Z,97380.44
2019-05-17T00:26:02.719Z,97368.89
2019-05-17T00:30:09.645Z,97364.98
2019-05-17T00:34:16.603Z,97355.23
2019-05-17T00:38:21.110Z,97352.45
2019-05-17T00:42:26.471Z,97344.82
2019-05-17T00:46:31.460Z,97341.02
2019-05-17T00:50:37.890Z,97334.13
2019-05-17T00:54:43.023Z,97340.45
2019-05-17T00:58:47.909Z,97326.37
2019-05-17T01:02:52.786Z,97330.34
2019-05-17T01:06:57.675Z,97323.88
2019-05-17T01:11:02.637Z,97325.57
2019-05-17T01:15:08.754Z,97320.36
2019-05-17T01:19:13.631Z,97312.27
2019-05-17T01:23:18.513Z,97316.09
2019-05-17T01:27:23.404Z,97314.80
2019-05-17T01:31:28.291Z,97307.30
2019-05-17T01:35:33.181Z,97312.97
2019-05-17T01:39:38.052Z,97304.20
2019-05-17T01:43:42.939Z,97303.44
2019-05-17T01:47:47.830Z,97298.98
2019-05-17T01:51:52.717Z,97298.22
2019-05-17T01:55:57.610Z,97292.55
2019-05-17T02:00:03.253Z,97295.06
2019-05-17T02:04:09.210Z,97288.17
2019-05-17T02:08:14.097Z,97293.39
2019-05-17T02:12:19.957Z,97287.78
2019-05-17T02:16:26.727Z,97285.42
2019-05-17T02:20:31.417Z,97285.97
2019-05-17T02:24:37.096Z,97278.55
2019-05-17T02:28:42.141Z,97277.80
2019-05-17T02:32:48.477Z,97268.42
2019-05-17T02:36:53.593Z,97271.42
2019-05-17T02:40:58.588Z,97266.20
2019-05-17T02:45:04.012Z,97268.50
2019-05-17T02:49:08.899Z,97264.31
2019-05-17T02:53:13.861Z,97260.94
2019-05-17T02:57:18.743Z,97257.78
2019-05-17T03:01:23.624Z,97254.87
2019-05-17T03:05:28.506Z,97254.02
2019-05-17T03:09:33.852Z,97251.01
2019-05-17T03:13:38.977Z,97251.46
2019-05-17T03:17:44.075Z,97246.19
2019-05-17T03:21:49.007Z,97247.09
2019-05-17T03:25:53.888Z,97247.44
2019-05-17T03:29:58.782Z,97248.66
2019-05-17T03:34:06.389Z,97243.19
2019-05-17T03:38:13.864Z,97241.67
2019-05-17T03:42:17.477Z,97243.83
2019-05-17T03:46:23.208Z,97239.52
2019-05-17T03:50:28.396Z,97238.95
2019-05-17T03:54:33.286Z,97246.95
2019-05-17T03:58:38.174Z,97246.28
2019-05-17T04:02:44.322Z,97243.17
2019-05-17T04:06:52.641Z,97241.05
2019-05-17T04:10:56.476Z,97232.31
2019-05-17T04:15:03.315Z,97236.29
2019-05-17T04:19:07.942Z,97238.59
2019-05-17T04:23:13.045Z,97234.13
2019-05-17T04:27:18.080Z,97228.66
2019-05-17T04:31:23.050Z,97231.98
2019-05-17T04:35:32.427Z,97236.95
2019-05-17T04:39:35.568Z,97241.86
2019-05-17T04:43:42.471Z,97237.53
2019-05-17T04:47:47.202Z,97240.91
2019-05-17T04:51:52.634Z,97243.52
2019-05-17T04:55:57.623Z,97237.27
2019-05-17T05:00:04.151Z,97237.18
2019-05-17T05:04:09.421Z,97236.21
2019-05-17T05:08:14.370Z,97237.64
2019-05-17T05:12:19.257Z,97238.83
2019-05-17T05:16:24.170Z,97228.33
2019-05-17T05:20:29.034Z,97228.97
2019-05-17T05:24:33.983Z,97232.61
2019-05-17T05:28:38.865Z,97234.64
2019-05-17T05:32:43.754Z,97237.59
2019-05-17T05:36:48.639Z,97230.42
2019-05-17T05:40:53.527Z,97224.84
2019-05-17T05:44:58.414Z,97231.03
2019-05-17T05:49:03.289Z,97231.48
2019-05-17T05:53:08.177Z,97229.17
2019-05-17T05:57:13.072Z,97239.34
2019-05-17T06:01:17.964Z,97246.70
2019-05-17T06:05:22.844Z,97247.57
2019-05-17T06:09:27.718Z,97245.49
2019-05-17T06:13:32.867Z,97244.58
2019-05-17T06:17:37.742Z,97246.30
2019-05-17T06:21:42.874Z,97246.19
2019-05-17T06:25:47.686Z,97240.50
2019-05-17T06:29:52.565Z,97241.51
2019-05-17T06:33:58.524Z,97241.35
2019-05-17T06:38:03.415Z,97230.91
2019-05-17T06:42:08.302Z,97247.06
2019-05-17T06:46:13.200Z,97242.57
2019-05-17T06:50:18.225Z,97243.43
2019-05-17T06:54:23.121Z,97242.58
2019-05-17T06:58:28.017Z,97240.42
2019-05-17T07:02:35.964Z,97237.60
2019-05-17T07:06:40.458Z,97240.99
2019-05-17T07:10:45.538Z,97238.53
2019-05-17T07:14:50.799Z,97232.21
2019-05-17T07:18:56.879Z,97235.69
2019-05-17T07:23:01.787Z,97234.45
2019-05-17T07:27:06.672Z,97236.28
2019-05-17T07:31:11.572Z,97236.55
2019-05-17T07:35:16.908Z,97232.21
2019-05-17T07:39:21.815Z,97227.95
2019-05-17T07:43:26.741Z,97235.65
2019-05-17T07:47:31.689Z,97229.73
2019-05-17T07:51:36.567Z,97231.33
2019-05-17T07:55:41.464Z,97228.16
2019-05-17T07:59:46.360Z,97223.72
2019-05-17T08:03:51.258Z,97218.59
2019-05-17T08:07:57.121Z,97222.80
2019-05-17T08:12:02.011Z,97218.41
2019-05-17T08:16:06.910Z,97222.48
2019-05-17T08:20:12.078Z,97225.76
2019-05-17T08:24:16.976Z,97216.98
2019-05-17T08:28:21.871Z,97213.42
2019-05-17T08:32:26.771Z,97206.66
2019-05-17T08:36:31.663Z,97203.22
2019-05-17T08:40:36.572Z,97203.82
2019-05-17T08:44:41.470Z,97199.28
2019-05-17T08:48:46.369Z,97197.80
2019-05-17T08:52:51.255Z,97193.69
2019-05-17T08:56:56.164Z,97183.94
2019-05-17T09:01:01.061Z,97186.56
2019-05-17T09:05:09.676Z,97181.61
2019-05-17T09:09:13.785Z,97181.81
2019-05-17T09:13:19.567Z,97172.98
2019-05-17T09:17:24.659Z,97178.98
2019-05-17T09:21:31.413Z,97168.48
2019-05-17T09:25:36.154Z,97167.92
2019-05-17T09:29:41.053Z,97159.16
2019-05-17T09:33:45.945Z,97149.69
2019-05-17T09:37:50.835Z,97154.20
2019-05-17T09:41:55.735Z,97152.61
2019-05-17T09:46:01.698Z,97160.56
2019-05-17T09:50:09.924Z,97151.73
2019-05-17T09:54:15.180Z,97161.04
2019-05-17T09:58:21.604Z,97156.23
2019-05-17T10:02:26.732Z,97154.36
2019-05-17T10:06:31.628Z,97150.59
2019-05-17T10:10:36.522Z,97150.59
2019-05-17T10:14:41.487Z,97152.23
2019-05-17T10:18:46.383Z,97146.77
2019-05-17T10:22:51.273Z,97130.09
2019-05-17T10:26:56.169Z,97130.09
2019-05-17T10:31:02.323Z,97129.50
2019-05-17T10:35:07.896Z,97140.80
2019-05-17T10:39:12.799Z,97138.33
2019-05-17T10:43:17.696Z,97143.45
2019-05-17T10:47:22.604Z,97136.05
2019-05-17T10:51:29.487Z,97134.48
2019-05-17T10:55:34.153Z,97131.98
2019-05-17T10:59:39.045Z,97130.59
2019-05-17T11:03:43.941Z,97131.88
2019-05-17T11:07:50.380Z,97131.64
2019-05-17T11:11:55.614Z,97126.55
2019-05-17T11:16:00.505Z,97121.05
2019-05-17T11:20:08.159Z,97127.29
2019-05-17T11:24:13.044Z,97124.02
2019-05-17T11:28:17.932Z,97124.53
2019-05-17T11:32:22.825Z,97119.83
2019-05-17T11:36:27.718Z,97127.25
2019-05-17T11:40:32.617Z,97116.12
2019-05-17T11:44:37.521Z,97115.69
2019-05-17T11:48:42.424Z,97111.00
2019-05-17T11:52:47.318Z,97103.67
2019-05-17T11:56:52.209Z,97104.45
2019-05-17T12:00:57.102Z,97114.17
2019-05-17T12:05:02.001Z,97102.25
2019-05-17T12:09:07.539Z,97100.48
2019-05-17T12:13:12.502Z,97096.50
2019-05-17T12:17:17.397Z,97106.94
2019-05-17T12:21:22.284Z,97094.58
2019-05-17T12:25:27.250Z,97102.02
2019-05-17T12:29:32.157Z,97092.53
2019-05-17T12:33:37.049Z,97089.66
2019-05-17T12:37:42.602Z,97099.27
2019-05-17T12:41:47.570Z,97087.76
2019-05-17T12:46:00.553Z,97087.47
2019-05-17T12:49:59.805Z,97083.50
2019-05-17T12:54:04.716Z,97083.13
2019-05-17T12:58:09.599Z,97083.83
2019-05-17T13:02:14.491Z,97073.06
2019-05-17T13:06:19.394Z,97079.75
2019-05-17T13:10:24.298Z,97075.97
2019-05-17T13:14:29.197Z,97077.31
2019-05-17T13:18:34.094Z,97076.22
2019-05-17T13:22:38.974Z,97071.52
2019-05-17T13:26:43.871Z,97076.05
2019-05-17T13:30:48.766Z,97080.41
2019-05-17T13:34:54.634Z,97073.33
2019-05-17T13:38:59.530Z,97073.44
2019-05-17T13:43:04.416Z,97064.08
2019-05-17T13:47:09.312Z,97067.78
2019-05-17T13:51:14.208Z,97063.82
2019-05-17T13:55:19.108Z,97064.92
2019-05-17T13:59:24.008Z,97057.89
2019-05-17T14:03:28.928Z,97060.08
2019-05-17T14:07:33.822Z,97065.20
2019-05-17T14:11:38.724Z,97054.00
2019-05-17T14:15:43.689Z,97048.83
2019-05-17T14:19:48.593Z,97049.40
2019-05-17T14:23:53.487Z,97035.72
2019-05-17T14:27:58.420Z,97043.47
2019-05-17T14:32:03.534Z,97046.95
2019-05-17T14:36:08.601Z,97044.20
2019-05-17T14:40:13.843Z,97044.66
2019-05-17T14:44:18.728Z,97039.30
2019-05-17T14:48:23.621Z,97042.70
2019-05-17T14:52:28.529Z,97035.56
2019-05-17T14:56:33.462Z,97024.22
2019-05-17T15:00:38.365Z,97029.45
2019-05-17T15:04:43.251Z,97030.44
2019-05-17T15:08:49.219Z,97031.52
2019-05-17T15:12:55.193Z,97027.87
2019-05-17T15:17:00.090Z,97031.38
2019-05-17T15:21:04.989Z,97032.47
2019-05-17T15:25:10.112Z,97027.87
2019-05-17T15:29:15.008Z,97019.25
2019-05-17T15:33:19.905Z,97019.11
2019-05-17T15:37:24.811Z,97008.47
2019-05-17T15:41:29.716Z,97010.42
2019-05-17T15:45:34.602Z,97008.02
2019-05-17T15:49:39.499Z,96997.34
2019-05-17T15:53:44.396Z,97006.19
2019-05-17T15:57:49.297Z,96995.47
2019-05-17T16:01:54.327Z,96988.75
2019-05-17T16:06:00.262Z,96988.66
2019-05-17T16:10:09.053Z,96979.73
2019-05-17T16:14:13.936Z,96972.09
2019-05-17T16:18:18.842Z,96967.49
2019-05-17T16:22:23.738Z,96970.67
2019-05-17T16:26:28.643Z,96968.13
2019-05-17T16:30:33.540Z,96969.20
2019-05-17T16:34:38.442Z,96964.71
2019-05-17T16:38:43.339Z,96973.13
2019-05-17T16:42:48.219Z,96963.84
2019-05-17T16:46:53.166Z,96962.13
2019-05-17T16:50:58.063Z,96971.45
2019-05-17T16:55:05.775Z,96959.91
2019-05-17T16:59:11.741Z,96958.16
2019-05-17T17:03:16.646Z,96958.59
2019-05-17T17:07:21.523Z,96956.92
2019-05-17T17:11:26.489Z,96957.22
2019-05-17T17:15:31.443Z,96954.95
2019-05-17T17:19:36.280Z,96952.57
2019-05-17T17:23:42.151Z,96961.00
2019-05-17T17:27:47.104Z,96960.30
2019-05-17T17:31:52.004Z,96961.34
2019-05-17T17:35:56.899Z,96960.77
2019-05-17T17:40:01.807Z,96954.81
2019-05-17T17:44:06.706Z,96961.92
2019-05-17T17:48:11.587Z,96956.64
2019-05-17T17:52:16.478Z,96951.50
2019-05-17T17:56:21.382Z,96954.41
2019-05-17T18:00:26.283Z,96948.87
2019-05-17T18:04:31.178Z,96948.98
2019-05-17T18:08:36.068Z,96955.84
2019-05-17T18:12:40.965Z,96948.41
2019-05-17T18:16:45.861Z,96953.32
2019-05-17T18:20:50.760Z,96954.19
2019-05-17T18:24:55.653Z,96954.80
2019-05-17T18:29:00.609Z,96954.78
2019-05-17T18:33:06.217Z,96959.46
2019-05-17T18:37:11.107Z,96965.08
2019-05-17T18:41:16.019Z,96961.70
2019-05-17T18:45:21.008Z,96958.28
2019-05-17T18:49:25.957Z,96971.80
2019-05-17T18:53:30.852Z,96969.59
2019-05-17T18:57:35.749Z,96979.80
2019-05-17T19:01:40.641Z,96979.69
2019-05-17T19:05:45.572Z,96981.91
2019-05-17T19:09:50.443Z,96983.66
2019-05-17T19:13:55.360Z,96989.06
2019-05-17T19:18:00.248Z,97000.75
2019-05-17T19:22:05.145Z,97010.14
2019-05-17T19:26:10.044Z,97004.83
2019-05-17T19:30:16.271Z,96988.35
2019-05-17T19:34:21.190Z,97010.80
2019-05-17T19:38:26.081Z,97012.42
2019-05-17T19:42:30.984Z,97003.67
2019-05-17T19:46:35.889Z,97016.43
2019-05-17T19:50:40.779Z,97012.62
2019-05-17T19:54:45.669Z,97014.27
2019-05-17T19:58:50.573Z,97017.31
2019-05-17T20:02:55.476Z,97018.83
2019-05-17T20:07:00.369Z,97020.23
2019-05-17T20:11:05.270Z,97019.18
2019-05-17T20:15:17.508Z,97019.14
2019-05-17T20:19:17.109Z,97010.25
2019-05-17T20:23:22.007Z,97011.38
2019-05-17T20:27:26.915Z,97008.76
2019-05-17T20:31:31.799Z,97012.11
2019-05-17T20:35:36.699Z,97010.62
2019-05-17T20:39:41.596Z,97003.80
2019-05-17T20:43:46.489Z,96995.08
2019-05-17T20:47:51.389Z,96992.88
2019-05-17T20:51:56.281Z,96996.94
2019-05-17T20:56:01.175Z,96995.67
2019-05-17T21:00:09.979Z,96999.32
2019-05-17T21:04:14.877Z,96987.70
2019-05-17T21:08:19.770Z,96986.69
2019-05-17T21:12:24.657Z,96990.25
2019-05-17T21:16:29.558Z,96984.28
2019-05-17T21:20:34.479Z,96977.66
2019-05-17T21:24:39.374Z,96976.05
2019-05-17T21:28:47.065Z,96981.83
2019-05-17T21:32:50.849Z,96992.88
2019-05-17T21:36:55.738Z,96992.33
2019-05-17T21:41:00.636Z,96991.73
2019-05-17T21:45:06.814Z,96995.50
2019-05-17T21:49:11.669Z,96994.74
2019-05-17T21:53:16.561Z,97001.00
2019-05-17T21:57:21.456Z,97010.57
2019-05-17T22:01:27.309Z,97008.91
2019-05-17T22:05:32.189Z,97015.11
2019-05-17T22:09:37.106Z,97005.92
2019-05-17T22:13:41.972Z,97002.45
2019-05-17T22:17:46.869Z,97004.26
2019-05-17T22:21:51.769Z,96999.38
2019-05-17T22:25:56.668Z,96997.22
2019-05-17T22:30:01.574Z,96999.95
2019-05-17T22:34:06.447Z,97003.89
2019-05-17T22:38:11.345Z,97003.31
2019-05-17T22:42:16.274Z,97003.89
2019-05-17T22:46:35.127Z,97005.37
2019-05-17T22:50:27.983Z,97010.91
2019-05-17T22:54:32.871Z,97006.34
2019-05-17T22:58:37.771Z,96999.66
2019-05-17T23:02:42.664Z,97004.48
2019-05-17T23:06:48.629Z,97003.42
2019-05-17T23:10:53.524Z,97001.57
2019-05-17T23:14:58.401Z,97000.17
2019-05-17T23:19:09.800Z,96989.46
2019-05-17T23:23:15.533Z,96986.40
2019-05-17T23:27:20.540Z,96990.05
2019-05-17T23:31:25.442Z,96993.72
2019-05-17T23:35:30.321Z,97002.90
2019-05-17T23:39:35.218Z,97004.52
2019-05-17T23:43:40.117Z,97007.59
2019-05-17T23:47:45.012Z,97004.20
2019-05-17T23:51:49.908Z,96995.53
2019-05-17T23:55:54.792Z,97000.84
2019-05-17T23:59:59.688Z,96997.92
